createdAt,value
2018-05-31T00:01:53.260Z,97495.82
2018-05-31T00:04:20.721Z,97501.02
2018-05-31T00:06:48.194Z,97493.36
2018-05-31T00:09:15.634Z,97497.67
2018-05-31T00:11:43.124Z,97489.82
2018-05-31T00:14:10.579Z,97487.55
2018-05-31T00:16:38.049Z,97488.73
2018-05-31T00:19:05.519Z,97487.79
2018-05-31T00:21:32.994Z,97485.66
2018-05-31T00:24:00.462Z,97488.57
2018-05-31T00:26:27.980Z,97495.42
2018-05-31T00:28:55.529Z,97496.73
2018-05-31T00:31:23.018Z,97497.92
2018-05-31T00:33:50.452Z,97494.98
2018-05-31T00:36:17.900Z,97496.54
2018-05-31T00:38:45.402Z,97496.31
2018-05-31T00:41:12.852Z,97500.24
2018-05-31T00:43:40.332Z,97501.28
2018-05-31T00:46:07.778Z,97510.36
2018-05-31T00:48:35.991Z,97513.70
2018-05-31T00:51:03.449Z,97509.19
2018-05-31T00:53:30.987Z,97510.06
2018-05-31T00:56:10.109Z,97513.16
2018-05-31T00:58:37.581Z,97509.13
2018-05-31T01:01:05.074Z,97514.34
2018-05-31T01:03:32.535Z,97519.92
2018-05-31T01:06:00.029Z,97519.84
2018-05-31T01:08:27.511Z,97518.22
2018-05-31T01:10:55.326Z,97520.16
2018-05-31T01:13:22.776Z,97510.47
2018-05-31T01:15:50.266Z,97510.15
2018-05-31T01:18:17.816Z,97504.20
2018-05-31T01:20:45.322Z,97499.91
2018-05-31T01:23:12.956Z,97494.06
2018-05-31T01:25:40.477Z,97495.48
2018-05-31T01:28:08.049Z,97492.54
2018-05-31T01:30:35.634Z,97496.24
2018-05-31T01:33:03.163Z,97499.20
2018-05-31T01:35:30.848Z,97510.67
2018-05-31T01:38:10.117Z,97504.91
2018-05-31T01:40:38.608Z,97511.88
2018-05-31T01:43:06.061Z,97497.47
2018-05-31T01:45:33.525Z,97501.87
2018-05-31T01:48:01.549Z,97504.73
2018-05-31T01:50:29.151Z,97508.48
2018-05-31T01:52:56.638Z,97505.91
2018-05-31T01:55:24.319Z,97503.73
2018-05-31T01:57:51.848Z,97495.31
2018-05-31T02:00:19.297Z,97497.34
2018-05-31T02:02:46.787Z,97493.87
2018-05-31T02:05:14.249Z,97491.55
2018-05-31T02:07:41.761Z,97496.34
2018-05-31T02:10:09.275Z,97489.62
2018-05-31T02:12:36.806Z,97491.64
2018-05-31T02:15:04.221Z,97495.92
2018-05-31T02:17:31.715Z,97495.84
2018-05-31T02:19:59.199Z,97493.61
2018-05-31T02:22:26.673Z,97490.62
2018-05-31T02:24:54.142Z,97495.32
2018-05-31T02:27:21.727Z,97497.58
2018-05-31T02:29:49.199Z,97499.61
2018-05-31T02:32:16.651Z,97497.66
2018-05-31T02:34:44.140Z,97501.53
2018-05-31T02:37:12.770Z,97497.86
2018-05-31T02:39:40.271Z,97506.27
2018-05-31T02:42:07.730Z,97505.84
2018-05-31T02:44:35.228Z,97504.65
2018-05-31T02:47:02.673Z,97503.23
2018-05-31T02:49:30.271Z,97500.25
2018-05-31T02:51:57.736Z,97499.22
2018-05-31T02:54:25.213Z,97497.62
2018-05-31T02:56:52.651Z,97507.06
2018-05-31T02:59:20.107Z,97496.67
2018-05-31T03:01:47.561Z,97490.88
2018-05-31T03:04:15.051Z,97503.58
2018-05-31T03:06:42.537Z,97504.20
2018-05-31T03:09:10.801Z,97502.95
2018-05-31T03:11:39.058Z,97509.00
2018-05-31T03:14:06.577Z,97514.50
2018-05-31T03:16:34.048Z,97508.52
2018-05-31T03:19:01.490Z,97510.28
2018-05-31T03:21:28.994Z,97506.88
2018-05-31T03:23:56.676Z,97510.39
2018-05-31T03:26:24.228Z,97513.58
2018-05-31T03:28:51.835Z,97512.95
2018-05-31T03:31:19.388Z,97513.52
2018-05-31T03:33:46.834Z,97511.66
2018-05-31T03:36:14.308Z,97516.77
2018-05-31T03:38:41.800Z,97514.14
2018-05-31T03:41:09.318Z,97509.66
2018-05-31T03:43:36.772Z,97516.55
2018-05-31T03:46:04.241Z,97515.98
2018-05-31T03:48:32.037Z,97512.72
2018-05-31T03:50:59.479Z,97514.06
2018-05-31T03:53:26.956Z,97504.88
2018-05-31T03:55:54.385Z,97518.70
2018-05-31T03:58:21.861Z,97512.25
2018-05-31T04:00:49.335Z,97512.86
2018-05-31T04:03:16.913Z,97507.45
2018-05-31T04:05:44.378Z,97499.97
2018-05-31T04:08:11.851Z,97501.95
2018-05-31T04:10:39.309Z,97499.28
2018-05-31T04:13:06.786Z,97488.49
2018-05-31T04:15:34.327Z,97495.00
2018-05-31T04:18:01.821Z,97497.07
2018-05-31T04:20:29.280Z,97502.98
2018-05-31T04:22:56.751Z,97515.03
2018-05-31T04:25:24.241Z,97510.23
2018-05-31T04:27:51.697Z,97521.65
2018-05-31T04:30:19.185Z,97526.41
2018-05-31T04:32:46.689Z,97520.98
2018-05-31T04:35:14.200Z,97522.79
2018-05-31T04:37:41.651Z,97526.36
2018-05-31T04:40:09.162Z,97525.69
2018-05-31T04:42:36.673Z,97535.81
2018-05-31T04:45:04.185Z,97536.09
2018-05-31T04:47:31.668Z,97530.71
2018-05-31T04:49:59.154Z,97527.70
2018-05-31T04:52:26.590Z,97525.59
2018-05-31T04:54:54.049Z,97538.88
2018-05-31T04:57:21.564Z,97525.09
2018-05-31T04:59:49.047Z,97537.66
2018-05-31T05:02:16.549Z,97528.93
2018-05-31T05:04:44.093Z,97523.20
2018-05-31T05:07:11.566Z,97530.14
2018-05-31T05:09:39.167Z,97534.98
2018-05-31T05:12:06.804Z,97531.69
2018-05-31T05:14:34.402Z,97529.05
2018-05-31T05:17:02.271Z,97530.89
2018-05-31T05:19:29.722Z,97524.11
2018-05-31T05:21:57.298Z,97539.08
2018-05-31T05:24:24.771Z,97531.09
2018-05-31T05:26:52.228Z,97537.08
2018-05-31T05:29:19.682Z,97540.03
2018-05-31T05:31:47.168Z,97544.21
2018-05-31T05:34:14.656Z,97534.25
2018-05-31T05:36:42.157Z,97532.00
2018-05-31T05:39:09.632Z,97538.02
2018-05-31T05:41:37.780Z,97540.33
2018-05-31T05:44:05.326Z,97539.92
2018-05-31T05:46:32.776Z,97537.55
2018-05-31T05:49:00.276Z,97537.36
2018-05-31T05:51:28.191Z,97543.57
2018-05-31T05:53:56.063Z,97544.73
2018-05-31T05:56:23.569Z,97553.47
2018-05-31T05:58:51.010Z,97562.44
2018-05-31T06:01:18.562Z,97555.87
2018-05-31T06:03:46.189Z,97548.34
2018-05-31T06:06:13.633Z,97549.59
2018-05-31T06:08:41.134Z,97553.84
2018-05-31T06:11:08.617Z,97558.67
2018-05-31T06:13:36.242Z,97562.52
2018-05-31T06:16:03.996Z,97563.67
2018-05-31T06:18:31.437Z,97560.63
2018-05-31T06:20:58.889Z,97564.88
2018-05-31T06:23:26.327Z,97562.56
2018-05-31T06:25:54.342Z,97568.48
2018-05-31T06:28:22.933Z,97565.15
2018-05-31T06:30:50.428Z,97572.55
2018-05-31T06:33:17.876Z,97575.20
2018-05-31T06:35:45.366Z,97578.17
2018-05-31T06:38:12.808Z,97584.51
2018-05-31T06:40:40.280Z,97588.88
2018-05-31T06:43:07.759Z,97587.42
2018-05-31T06:45:35.207Z,97584.23
2018-05-31T06:48:02.724Z,97584.37
2018-05-31T06:50:30.172Z,97583.61
2018-05-31T06:52:57.714Z,97585.30
2018-05-31T06:55:25.168Z,97586.98
2018-05-31T06:57:52.640Z,97580.99
2018-05-31T07:00:20.088Z,97584.31
2018-05-31T07:02:47.572Z,97582.95
2018-05-31T07:05:15.016Z,97588.02
2018-05-31T07:07:42.490Z,97585.04
2018-05-31T07:10:09.923Z,97590.43
2018-05-31T07:12:37.380Z,97585.53
2018-05-31T07:15:04.811Z,97584.06
2018-05-31T07:17:32.332Z,97584.55
2018-05-31T07:20:00.188Z,97584.08
2018-05-31T07:22:28.619Z,97582.11
2018-05-31T07:24:56.083Z,97580.55
2018-05-31T07:27:23.541Z,97577.97
2018-05-31T07:29:51.006Z,97577.26
2018-05-31T07:32:18.449Z,97579.75
2018-05-31T07:34:46.004Z,97582.09
2018-05-31T07:37:13.454Z,97591.72
2018-05-31T07:39:40.954Z,97585.14
2018-05-31T07:42:08.414Z,97586.11
2018-05-31T07:44:35.918Z,97585.94
2018-05-31T07:47:03.394Z,97587.25
2018-05-31T07:49:30.855Z,97590.67
2018-05-31T07:51:58.311Z,97590.20
2018-05-31T07:54:25.834Z,97590.80
2018-05-31T07:56:53.299Z,97592.78
2018-05-31T07:59:20.768Z,97601.85
2018-05-31T08:01:48.228Z,97595.17
2018-05-31T08:04:15.771Z,97598.44
2018-05-31T08:06:43.608Z,97595.29
2018-05-31T08:09:11.063Z,97598.59
2018-05-31T08:11:38.547Z,97596.77
2018-05-31T08:14:05.984Z,97600.53
2018-05-31T08:16:33.435Z,97597.84
2018-05-31T08:19:00.867Z,97600.98
2018-05-31T08:21:28.310Z,97592.46
2018-05-31T08:23:56.572Z,97592.73
2018-05-31T08:26:24.057Z,97593.91
2018-05-31T08:28:51.513Z,97596.04
2018-05-31T08:31:18.963Z,97592.23
2018-05-31T08:33:46.440Z,97590.13
2018-05-31T08:36:13.892Z,97595.87
2018-05-31T08:38:41.398Z,97594.02
2018-05-31T08:41:08.880Z,97595.04
2018-05-31T08:43:36.637Z,97593.89
2018-05-31T08:46:04.162Z,97593.30
2018-05-31T08:48:31.687Z,97587.99
2018-05-31T08:50:59.182Z,97601.96
2018-05-31T08:53:26.634Z,97602.94
2018-05-31T08:55:54.159Z,97602.59
2018-05-31T08:58:22.064Z,97601.42
2018-05-31T09:00:49.686Z,97602.58
2018-05-31T09:03:17.790Z,97600.56
2018-05-31T09:05:45.257Z,97606.93
2018-05-31T09:08:12.749Z,97599.91
2018-05-31T09:10:40.521Z,97595.41
2018-05-31T09:13:08.319Z,97593.67
2018-05-31T09:15:35.786Z,97591.36
2018-05-31T09:18:03.242Z,97586.63
2018-05-31T09:20:30.687Z,97595.50
2018-05-31T09:22:58.141Z,97599.44
2018-05-31T09:25:25.617Z,97588.63
2018-05-31T09:27:53.062Z,97585.68
2018-05-31T09:30:20.539Z,97589.61
2018-05-31T09:32:48.022Z,97583.91
2018-05-31T09:35:15.508Z,97588.45
2018-05-31T09:37:43.075Z,97588.45
2018-05-31T09:40:10.688Z,97585.47
2018-05-31T09:42:38.179Z,97588.62
2018-05-31T09:45:08.837Z,97586.42
2018-05-31T09:47:38.320Z,97579.92
2018-05-31T09:50:09.010Z,97584.24
2018-05-31T09:52:38.716Z,97583.25
2018-05-31T09:55:10.820Z,97583.78
2018-05-31T09:57:38.330Z,97589.71
2018-05-31T10:00:07.766Z,97594.02
2018-05-31T10:02:38.876Z,97587.05
2018-05-31T10:05:08.321Z,97590.73
2018-05-31T10:07:38.015Z,97583.44
2018-05-31T10:10:07.404Z,97581.89
2018-05-31T10:12:37.452Z,97578.27
2018-05-31T10:15:07.422Z,97562.09
2018-05-31T10:17:36.589Z,97568.73
2018-05-31T10:20:06.249Z,97572.33
2018-05-31T10:22:35.480Z,97572.89
2018-05-31T10:25:04.980Z,97568.95
2018-05-31T10:27:34.441Z,97567.76
2018-05-31T10:30:05.317Z,97565.11
2018-05-31T10:32:34.663Z,97565.03
2018-05-31T10:35:04.436Z,97562.27
2018-05-31T10:37:34.673Z,97553.36
2018-05-31T10:40:04.519Z,97554.34
2018-05-31T10:42:32.975Z,97549.95
2018-05-31T10:45:02.889Z,97552.22
2018-05-31T10:47:32.113Z,97553.27
2018-05-31T10:49:59.595Z,97545.73
2018-05-31T10:52:28.752Z,97552.03
2018-05-31T10:54:58.699Z,97554.40
2018-05-31T10:57:27.881Z,97551.43
2018-05-31T10:59:57.472Z,97554.98
2018-05-31T11:02:24.947Z,97550.54
2018-05-31T11:04:54.697Z,97555.06
2018-05-31T11:07:24.923Z,97547.08
2018-05-31T11:09:57.280Z,97550.30
2018-05-31T11:12:28.153Z,97553.67
2018-05-31T11:14:57.536Z,97551.15
2018-05-31T11:17:27.179Z,97548.73
2018-05-31T11:19:56.264Z,97549.02
2018-05-31T11:22:26.117Z,97554.34
2018-05-31T11:24:55.578Z,97558.17
2018-05-31T11:27:24.918Z,97559.09
2018-05-31T11:29:54.280Z,97553.13
2018-05-31T11:32:24.660Z,97550.57
2018-05-31T11:34:54.279Z,97547.86
2018-05-31T11:37:24.954Z,97542.78
2018-05-31T11:39:54.224Z,97543.12
2018-05-31T11:42:24.255Z,97535.45
2018-05-31T11:44:53.139Z,97530.52
2018-05-31T11:47:23.141Z,97525.13
2018-05-31T11:49:53.618Z,97525.37
2018-05-31T11:52:23.580Z,97523.41
2018-05-31T11:54:54.052Z,97525.50
2018-05-31T11:57:23.126Z,97519.52
2018-05-31T11:59:52.257Z,97528.14
2018-05-31T12:02:22.146Z,97512.35
2018-05-31T12:04:51.919Z,97511.86
2018-05-31T12:07:19.367Z,97507.10
2018-05-31T12:09:48.633Z,97499.25
2018-05-31T12:12:18.084Z,97496.12
2018-05-31T12:14:47.843Z,97495.47
2018-05-31T12:17:17.230Z,97493.81
2018-05-31T12:19:44.744Z,97492.64
2018-05-31T12:22:14.064Z,97497.64
2018-05-31T12:24:43.490Z,97499.45
2018-05-31T12:27:12.468Z,97494.67
2018-05-31T12:29:41.999Z,97491.69
2018-05-31T12:32:11.734Z,97485.62
2018-05-31T12:34:41.657Z,97480.02
2018-05-31T12:37:11.223Z,97473.61
2018-05-31T12:39:40.254Z,97473.38
2018-05-31T12:42:09.674Z,97475.69
2018-05-31T12:44:38.713Z,97479.53
2018-05-31T12:47:08.233Z,97473.30
2018-05-31T12:49:37.079Z,97476.83
2018-05-31T12:52:06.532Z,97471.03
2018-05-31T12:54:35.630Z,97466.05
2018-05-31T12:57:05.090Z,97463.37
2018-05-31T12:59:35.041Z,97460.73
2018-05-31T13:02:05.431Z,97458.69
2018-05-31T13:04:35.035Z,97447.45
2018-05-31T13:07:04.897Z,97449.20
2018-05-31T13:09:34.963Z,97449.93
2018-05-31T13:12:04.879Z,97453.95
2018-05-31T13:14:35.064Z,97450.79
2018-05-31T13:17:04.892Z,97444.70
2018-05-31T13:19:33.528Z,97447.31
2018-05-31T13:22:03.183Z,97448.32
2018-05-31T13:24:37.052Z,97443.20
2018-05-31T13:27:06.307Z,97439.29
2018-05-31T13:29:38.061Z,97442.92
2018-05-31T13:32:06.892Z,97430.19
2018-05-31T13:34:40.948Z,97427.69
2018-05-31T13:37:09.791Z,97435.86
2018-05-31T13:39:37.334Z,97440.14
2018-05-31T13:42:06.564Z,97451.22
2018-05-31T13:44:37.387Z,97460.18
2018-05-31T13:47:06.756Z,97469.77
2018-05-31T13:49:34.345Z,97468.23
2018-05-31T13:52:03.717Z,97463.78
2018-05-31T13:54:33.429Z,97459.91
2018-05-31T13:57:03.071Z,97460.38
2018-05-31T13:59:32.148Z,97466.17
2018-05-31T14:02:01.439Z,97459.34
2018-05-31T14:04:30.671Z,97466.81
2018-05-31T14:07:00.319Z,97469.95
2018-05-31T14:09:29.527Z,97469.61
2018-05-31T14:11:58.722Z,97466.16
2018-05-31T14:14:28.803Z,97465.78
2018-05-31T14:16:58.565Z,97467.41
2018-05-31T14:19:27.773Z,97462.95
2018-05-31T14:22:01.082Z,97469.16
2018-05-31T14:24:30.892Z,97472.08
2018-05-31T14:27:00.934Z,97484.00
2018-05-31T14:29:34.591Z,97483.75
2018-05-31T14:32:04.386Z,97480.83
2018-05-31T14:34:33.712Z,97481.64
2018-05-31T14:37:05.751Z,97490.07
2018-05-31T14:39:44.265Z,97489.78
2018-05-31T14:42:13.682Z,97485.19
2018-05-31T14:44:44.020Z,97480.38
2018-05-31T14:47:14.192Z,97478.85
2018-05-31T14:49:43.337Z,97478.27
2018-05-31T14:52:13.211Z,97470.47
2018-05-31T14:54:43.781Z,97475.41
2018-05-31T14:57:13.593Z,97461.27
2018-05-31T14:59:43.120Z,97463.64
2018-05-31T15:02:12.890Z,97461.19
2018-05-31T15:04:42.258Z,97460.91
2018-05-31T15:07:15.015Z,97452.22
2018-05-31T15:09:44.495Z,97460.59
2018-05-31T15:12:14.774Z,97449.41
2018-05-31T15:14:48.594Z,97449.39
2018-05-31T15:17:20.777Z,97451.58
2018-05-31T15:19:52.126Z,97453.59
2018-05-31T15:22:23.979Z,97442.58
2018-05-31T15:25:02.386Z,97449.09
2018-05-31T15:27:31.655Z,97443.86
2018-05-31T15:30:01.238Z,97437.34
2018-05-31T15:32:30.804Z,97449.84
2018-05-31T15:34:59.897Z,97442.80
2018-05-31T15:37:30.976Z,97448.34
2018-05-31T15:40:04.782Z,97437.05
2018-05-31T15:42:34.373Z,97443.79
2018-05-31T15:45:03.552Z,97440.53
2018-05-31T15:47:33.324Z,97440.90
2018-05-31T15:50:03.028Z,97444.25
2018-05-31T15:52:32.584Z,97438.33
2018-05-31T15:55:00.563Z,97448.61
2018-05-31T15:57:29.796Z,97449.91
2018-05-31T16:00:01.047Z,97452.55
2018-05-31T16:02:31.315Z,97454.05
2018-05-31T16:05:01.786Z,97458.22
2018-05-31T16:07:33.147Z,97455.32
2018-05-31T16:10:03.709Z,97460.08
2018-05-31T16:12:33.684Z,97458.33
2018-05-31T16:15:01.158Z,97454.47
2018-05-31T16:17:34.230Z,97460.13
2018-05-31T16:20:07.326Z,97457.94
2018-05-31T16:22:36.692Z,97461.05
2018-05-31T16:25:05.603Z,97454.17
2018-05-31T16:27:34.808Z,97466.84
2018-05-31T16:30:04.143Z,97470.41
2018-05-31T16:32:32.867Z,97470.72
2018-05-31T16:35:02.908Z,97472.73
2018-05-31T16:37:32.222Z,97470.98
2018-05-31T16:40:01.975Z,97468.74
2018-05-31T16:42:31.349Z,97465.13
2018-05-31T16:45:01.256Z,97458.59
2018-05-31T16:47:30.553Z,97452.12
2018-05-31T16:49:59.844Z,97443.17
2018-05-31T16:52:28.722Z,97429.19
2018-05-31T16:54:57.231Z,97422.05
2018-05-31T16:57:24.751Z,97415.53
2018-05-31T16:59:53.145Z,97415.38
2018-05-31T17:02:20.743Z,97412.16
2018-05-31T17:04:48.315Z,97405.20
2018-05-31T17:07:16.101Z,97407.78
2018-05-31T17:09:49.066Z,97401.80
2018-05-31T17:12:16.538Z,97393.91
2018-05-31T17:15:11.831Z,97395.48
2018-05-31T17:17:39.310Z,97401.70
2018-05-31T17:20:07.623Z,97408.28
2018-05-31T17:22:35.993Z,97417.14
2018-05-31T17:25:03.454Z,97420.92
2018-05-31T17:27:30.997Z,97421.00
2018-05-31T17:29:58.457Z,97420.69
2018-05-31T17:32:25.962Z,97436.84
2018-05-31T17:34:55.355Z,97445.78
2018-05-31T17:37:25.403Z,97449.98
2018-05-31T17:39:57.881Z,97461.77
2018-05-31T17:42:27.695Z,97466.39
2018-05-31T17:44:57.102Z,97465.90
2018-05-31T17:47:26.614Z,97455.30
2018-05-31T17:49:56.010Z,97452.91
2018-05-31T17:52:25.778Z,97450.34
2018-05-31T17:54:55.705Z,97444.25
2018-05-31T17:57:25.356Z,97442.61
2018-05-31T17:59:54.504Z,97430.73
2018-05-31T18:02:23.795Z,97422.45
2018-05-31T18:04:53.188Z,97426.73
2018-05-31T18:07:22.625Z,97440.70
2018-05-31T18:09:55.631Z,97449.70
2018-05-31T18:12:25.384Z,97449.20
2018-05-31T18:14:54.978Z,97452.33
2018-05-31T18:17:24.271Z,97469.59
2018-05-31T18:19:53.727Z,97477.33
2018-05-31T18:22:22.698Z,97481.81
2018-05-31T18:24:51.600Z,97481.97
2018-05-31T18:27:24.118Z,97483.75
2018-05-31T18:29:53.548Z,97486.09
2018-05-31T18:32:22.441Z,97489.84
2018-05-31T18:34:52.217Z,97491.42
2018-05-31T18:37:21.167Z,97488.86
2018-05-31T18:39:50.339Z,97482.81
2018-05-31T18:42:26.488Z,97482.48
2018-05-31T18:44:55.789Z,97478.42
2018-05-31T18:47:24.652Z,97482.33
2018-05-31T18:49:53.878Z,97476.96
2018-05-31T18:52:24.268Z,97470.66
2018-05-31T18:54:53.702Z,97485.77
2018-05-31T18:57:23.408Z,97485.42
2018-05-31T18:59:52.997Z,97486.16
2018-05-31T19:02:25.949Z,97490.73
2018-05-31T19:04:55.372Z,97484.73
2018-05-31T19:07:29.585Z,97487.05
2018-05-31T19:09:59.246Z,97478.15
2018-05-31T19:12:38.148Z,97473.02
2018-05-31T19:15:07.254Z,97470.05
2018-05-31T19:17:36.343Z,97475.17
2018-05-31T19:20:03.827Z,97472.81
2018-05-31T19:22:34.003Z,97473.81
2018-05-31T19:25:12.698Z,97469.92
2018-05-31T19:27:42.521Z,97467.32
2018-05-31T19:30:17.583Z,97471.06
2018-05-31T19:32:46.463Z,97473.47
2018-05-31T19:35:25.664Z,97478.44
2018-05-31T19:38:08.194Z,97480.39
2018-05-31T19:40:37.066Z,97481.10
2018-05-31T19:43:14.337Z,97485.87
2018-05-31T19:45:47.303Z,97493.52
2018-05-31T19:48:16.592Z,97501.54
2018-05-31T19:50:55.456Z,97501.58
2018-05-31T19:53:29.973Z,97505.57
2018-05-31T19:55:58.944Z,97496.53
2018-05-31T19:58:32.294Z,97494.19
2018-05-31T20:01:06.872Z,97494.55
2018-05-31T20:03:36.226Z,97485.70
2018-05-31T20:06:05.336Z,97495.37
2018-05-31T20:08:34.775Z,97495.95
2018-05-31T20:11:04.263Z,97508.34
2018-05-31T20:13:33.651Z,97508.73
2018-05-31T20:16:03.283Z,97523.83
2018-05-31T20:18:32.704Z,97518.28
2018-05-31T20:21:03.052Z,97520.45
2018-05-31T20:23:32.301Z,97520.06
2018-05-31T20:26:01.978Z,97516.16
2018-05-31T20:28:30.998Z,97516.14
2018-05-31T20:31:01.026Z,97517.75
2018-05-31T20:33:30.371Z,97516.81
2018-05-31T20:35:59.748Z,97517.80
2018-05-31T20:38:28.881Z,97516.39
2018-05-31T20:40:58.105Z,97509.49
2018-05-31T20:43:28.012Z,97504.39
2018-05-31T20:45:57.247Z,97499.88
2018-05-31T20:48:26.854Z,97501.84
2018-05-31T20:50:56.719Z,97504.39
2018-05-31T20:53:27.107Z,97509.71
2018-05-31T20:55:56.230Z,97504.80
2018-05-31T20:58:25.672Z,97493.78
2018-05-31T21:00:53.114Z,97493.38
2018-05-31T21:03:20.581Z,97485.52
2018-05-31T21:05:49.980Z,97490.61
2018-05-31T21:08:19.464Z,97480.20
2018-05-31T21:10:48.856Z,97478.23
2018-05-31T21:13:18.797Z,97472.94
2018-05-31T21:15:48.382Z,97466.81
2018-05-31T21:18:18.183Z,97465.64
2018-05-31T21:20:47.403Z,97466.41
2018-05-31T21:23:16.746Z,97456.78
2018-05-31T21:25:46.873Z,97465.38
2018-05-31T21:28:16.562Z,97471.28
2018-05-31T21:30:46.158Z,97470.83
2018-05-31T21:33:13.620Z,97462.20
2018-05-31T21:35:41.230Z,97462.56
2018-05-31T21:38:08.543Z,97486.44
2018-05-31T21:40:36.035Z,97509.52
2018-05-31T21:43:03.611Z,97514.56
2018-05-31T21:45:31.635Z,97515.22
2018-05-31T21:47:59.064Z,97526.63
2018-05-31T21:50:26.830Z,97528.66
2018-05-31T21:52:55.154Z,97541.55
2018-05-31T21:55:22.625Z,97588.58
2018-05-31T21:57:50.111Z,97619.03
2018-05-31T22:00:31.230Z,97583.30
2018-05-31T22:02:58.975Z,97645.52
2018-05-31T22:05:26.569Z,97678.91
2018-05-31T22:07:55.233Z,97672.55
2018-05-31T22:10:22.673Z,97716.20
2018-05-31T22:12:50.162Z,97729.23
2018-05-31T22:15:17.665Z,97785.22
2018-05-31T22:17:45.164Z,97835.56
2018-05-31T22:20:12.631Z,97853.34
2018-05-31T22:22:40.129Z,97870.49
2018-05-31T22:25:08.373Z,97877.09
2018-05-31T22:27:36.581Z,97869.03
2018-05-31T22:30:04.096Z,97856.67
2018-05-31T22:32:31.568Z,97838.54
2018-05-31T22:34:59.030Z,97808.64
2018-05-31T22:37:26.531Z,97799.77
2018-05-31T22:39:53.981Z,97796.46
2018-05-31T22:42:21.429Z,97796.30
2018-05-31T22:44:50.797Z,97834.24
2018-05-31T22:47:20.506Z,97830.97
2018-05-31T22:49:49.794Z,97822.73
2018-05-31T22:52:19.279Z,97812.66
2018-05-31T22:54:48.546Z,97801.25
2018-05-31T22:57:17.810Z,97792.80
2018-05-31T22:59:47.408Z,97804.21
2018-05-31T23:02:16.537Z,97826.30
2018-05-31T23:04:46.101Z,97831.56
2018-05-31T23:07:15.482Z,97824.81
2018-05-31T23:09:44.937Z,97810.74
2018-05-31T23:12:14.325Z,97802.19
2018-05-31T23:14:43.758Z,97776.42
2018-05-31T23:17:12.840Z,97785.98
2018-05-31T23:19:42.491Z,97790.52
2018-05-31T23:22:11.838Z,97790.17
2018-05-31T23:24:41.059Z,97798.14
2018-05-31T23:27:11.143Z,97810.47
2018-05-31T23:29:40.845Z,97822.83
2018-05-31T23:32:09.991Z,97839.14
2018-05-31T23:34:39.629Z,97840.02
2018-05-31T23:37:08.993Z,97848.23
2018-05-31T23:39:38.103Z,97838.06
2018-05-31T23:42:07.741Z,97826.78
2018-05-31T23:44:36.871Z,97824.93
2018-05-31T23:47:06.714Z,97814.21
2018-05-31T23:49:36.056Z,97813.80
2018-05-31T23:52:05.719Z,97830.17
2018-05-31T23:54:35.112Z,97846.92
2018-05-31T23:57:04.769Z,97859.94
2018-05-31T23:59:34.246Z,97866.09
